createdAt,value
2019-02-23T00:01:16.792Z,76.60
2019-02-23T00:04:42.402Z,76.56
2019-02-23T00:08:08.118Z,76.71
2019-02-23T00:11:33.794Z,76.51
2019-02-23T00:14:59.479Z,76.57
2019-02-23T00:18:25.164Z,76.61
2019-02-23T00:21:50.764Z,76.43
2019-02-23T00:25:16.411Z,76.10
2019-02-23T00:28:42.053Z,76.72
2019-02-23T00:32:07.676Z,77.46
2019-02-23T00:35:33.753Z,77.27
2019-02-23T00:38:59.340Z,76.89
2019-02-23T00:42:25.287Z,77.34
2019-02-23T00:45:50.890Z,77.14
2019-02-23T00:49:17.147Z,77.63
2019-02-23T00:52:42.841Z,77.21
2019-02-23T00:56:08.493Z,77.13
2019-02-23T00:59:34.112Z,76.93
2019-02-23T01:02:59.706Z,77.39
2019-02-23T01:06:25.365Z,77.47
2019-02-23T01:09:51.319Z,77.57
2019-02-23T01:13:17.169Z,77.32
2019-02-23T01:16:43.100Z,77.13
2019-02-23T01:20:11.039Z,77.60
2019-02-23T01:23:36.685Z,77.50
2019-02-23T01:27:02.299Z,77.20
2019-02-23T01:30:27.930Z,77.53
2019-02-23T01:33:53.549Z,77.99
2019-02-23T01:37:19.206Z,77.90
2019-02-23T01:40:44.831Z,78.25
2019-02-23T01:44:10.451Z,77.72
2019-02-23T01:47:36.043Z,77.92
2019-02-23T01:51:01.644Z,78.12
2019-02-23T01:54:27.249Z,77.91
2019-02-23T01:57:52.901Z,77.85
2019-02-23T02:01:18.492Z,77.36
2019-02-23T02:04:44.150Z,77.72
2019-02-23T02:08:09.783Z,78.02
2019-02-23T02:11:35.520Z,78.06
2019-02-23T02:15:01.221Z,77.93
2019-02-23T02:18:27.044Z,77.86
2019-02-23T02:21:52.720Z,78.19
2019-02-23T02:25:18.716Z,77.76
2019-02-23T02:28:44.383Z,77.92
2019-02-23T02:32:10.025Z,78.63
2019-02-23T02:35:35.661Z,78.56
2019-02-23T02:39:01.281Z,78.60
2019-02-23T02:42:26.915Z,78.53
2019-02-23T02:45:52.605Z,78.91
2019-02-23T02:49:18.278Z,78.83
2019-02-23T02:52:43.946Z,78.55
2019-02-23T02:56:09.632Z,78.15
2019-02-23T02:59:35.267Z,78.78
2019-02-23T03:03:00.896Z,77.89
2019-02-23T03:06:26.927Z,78.16
2019-02-23T03:09:52.595Z,78.20
2019-02-23T03:13:18.189Z,77.84
2019-02-23T03:16:44.127Z,77.54
2019-02-23T03:20:10.554Z,78.04
2019-02-23T03:23:36.514Z,77.76
2019-02-23T03:27:02.129Z,77.93
2019-02-23T03:30:27.805Z,77.72
2019-02-23T03:33:53.411Z,78.00
2019-02-23T03:37:19.018Z,78.02
2019-02-23T03:40:44.658Z,78.09
2019-02-23T03:44:10.257Z,77.79
2019-02-23T03:47:35.889Z,78.00
2019-02-23T03:51:01.476Z,78.01
2019-02-23T03:54:27.103Z,78.65
2019-02-23T03:57:52.730Z,76.44
2019-02-23T04:01:18.381Z,75.71
2019-02-23T04:04:44.057Z,74.93
2019-02-23T04:08:09.811Z,73.12
2019-02-23T04:11:35.454Z,73.72
2019-02-23T04:15:01.689Z,73.11
2019-02-23T04:18:27.280Z,72.96
2019-02-23T04:21:52.934Z,73.14
2019-02-23T04:25:18.661Z,72.82
2019-02-23T04:28:44.293Z,72.86
2019-02-23T04:32:09.940Z,72.42
2019-02-23T04:35:35.900Z,72.11
2019-02-23T04:39:02.215Z,73.11
2019-02-23T04:42:27.873Z,72.32
2019-02-23T04:45:53.483Z,71.86
2019-02-23T04:49:19.161Z,72.87
2019-02-23T04:52:44.842Z,72.84
2019-02-23T04:56:10.453Z,72.85
2019-02-23T04:59:36.027Z,72.93
2019-02-23T05:03:01.672Z,72.44
2019-02-23T05:06:27.297Z,73.14
2019-02-23T05:09:52.898Z,73.51
2019-02-23T05:13:18.595Z,73.45
2019-02-23T05:16:44.218Z,73.43
2019-02-23T05:20:10.474Z,73.53
2019-02-23T05:23:36.077Z,73.58
2019-02-23T05:27:01.740Z,73.63
2019-02-23T05:30:31.560Z,73.57
2019-02-23T05:33:54.730Z,74.51
2019-02-23T05:37:20.347Z,74.03
2019-02-23T05:40:46.052Z,74.28
2019-02-23T05:44:11.700Z,74.14
2019-02-23T05:47:37.372Z,74.84
2019-02-23T05:51:03.041Z,73.94
2019-02-23T05:54:28.798Z,73.94
2019-02-23T05:57:54.438Z,74.13
2019-02-23T06:01:20.126Z,74.16
2019-02-23T06:04:48.130Z,73.94
2019-02-23T06:08:13.784Z,73.84
2019-02-23T06:11:39.342Z,74.58
2019-02-23T06:15:05.249Z,74.56
2019-02-23T06:18:31.117Z,74.44
2019-02-23T06:21:56.869Z,74.24
2019-02-23T06:25:22.934Z,74.50
2019-02-23T06:28:48.532Z,74.80
2019-02-23T06:32:14.228Z,74.72
2019-02-23T06:35:39.818Z,75.15
2019-02-23T06:39:06.444Z,74.78
2019-02-23T06:42:32.115Z,75.13
2019-02-23T06:45:57.825Z,74.95
2019-02-23T06:49:23.477Z,75.19
2019-02-23T06:52:49.163Z,75.56
2019-02-23T06:56:15.397Z,75.48
2019-02-23T06:59:41.165Z,75.48
2019-02-23T07:03:07.260Z,74.87
2019-02-23T07:06:34.018Z,74.61
2019-02-23T07:09:59.716Z,74.97
2019-02-23T07:13:25.367Z,75.10
2019-02-23T07:16:51.257Z,74.87
2019-02-23T07:20:43.728Z,74.08
2019-02-23T07:24:02.200Z,73.30
2019-02-23T07:27:27.842Z,72.80
2019-02-23T07:30:53.579Z,72.82
2019-02-23T07:34:28.015Z,72.39
2019-02-23T07:37:53.602Z,72.43
2019-02-23T07:41:19.400Z,72.41
2019-02-23T07:44:45.430Z,72.19
2019-02-23T07:48:12.452Z,71.03
2019-02-23T07:51:38.169Z,70.55
2019-02-23T07:55:03.686Z,70.68
2019-02-23T07:58:29.647Z,71.04
2019-02-23T08:01:55.286Z,69.87
2019-02-23T08:05:20.938Z,69.55
2019-02-23T08:08:46.675Z,70.05
2019-02-23T08:12:13.570Z,68.42
2019-02-23T08:15:39.555Z,68.49
2019-02-23T08:19:05.174Z,67.97
2019-02-23T08:22:37.427Z,66.99
2019-02-23T08:25:58.225Z,67.93
2019-02-23T08:29:23.859Z,67.45
2019-02-23T08:32:49.510Z,66.63
2019-02-23T08:36:15.331Z,65.64
2019-02-23T08:39:40.962Z,66.85
2019-02-23T08:43:06.663Z,64.87
2019-02-23T08:46:32.622Z,64.88
2019-02-23T08:49:58.338Z,64.27
2019-02-23T08:53:24.740Z,63.37
2019-02-23T08:56:50.397Z,62.55
2019-02-23T09:00:17.355Z,63.54
2019-02-23T09:03:43.129Z,62.17
2019-02-23T09:07:08.881Z,63.11
2019-02-23T09:10:34.558Z,61.88
2019-02-23T09:14:00.154Z,61.17
2019-02-23T09:17:25.856Z,60.58
2019-02-23T09:20:51.983Z,60.44
2019-02-23T09:24:17.933Z,60.73
2019-02-23T09:27:44.455Z,60.01
2019-02-23T09:31:10.144Z,59.06
2019-02-23T09:34:35.843Z,59.57
2019-02-23T09:38:03.265Z,57.65
2019-02-23T09:41:28.865Z,56.78
2019-02-23T09:44:54.607Z,56.31
2019-02-23T09:48:20.264Z,55.45
2019-02-23T09:51:45.998Z,52.95
2019-02-23T09:55:11.833Z,50.85
2019-02-23T09:58:37.445Z,47.22
2019-02-23T10:02:03.166Z,40.83
2019-02-23T10:05:29.080Z,38.77
2019-02-23T10:08:54.818Z,37.03
2019-02-23T10:12:20.557Z,34.27
2019-02-23T10:15:46.637Z,34.59
2019-02-23T10:19:12.551Z,31.31
2019-02-23T10:22:39.652Z,31.35
2019-02-23T10:26:06.010Z,31.41
2019-02-23T10:29:31.937Z,29.68
2019-02-23T10:32:57.745Z,30.42
2019-02-23T10:36:23.429Z,28.90
2019-02-23T10:39:49.020Z,30.81
2019-02-23T10:43:14.993Z,28.06
2019-02-23T10:46:39.957Z,26.91
2019-02-23T10:50:06.449Z,27.55
2019-02-23T10:53:33.066Z,28.60
2019-02-23T10:56:59.384Z,27.93
2019-02-23T11:00:25.825Z,26.12
2019-02-23T11:03:51.444Z,27.29
2019-02-23T11:07:17.374Z,26.23
2019-02-23T11:10:43.331Z,26.61
2019-02-23T11:14:09.034Z,26.03
2019-02-23T11:17:35.205Z,25.97
2019-02-23T11:21:00.946Z,27.06
2019-02-23T11:24:26.602Z,27.45
2019-02-23T11:31:19.147Z,27.99
2019-02-23T11:34:44.860Z,25.86
2019-02-23T11:38:10.508Z,25.43
2019-02-23T11:41:36.122Z,25.98
2019-02-23T11:45:01.766Z,25.72
2019-02-23T11:48:27.464Z,27.89
2019-02-23T11:51:53.159Z,28.41
2019-02-23T11:55:19.695Z,27.91
2019-02-23T11:58:45.622Z,25.77
2019-02-23T12:02:11.245Z,24.49
2019-02-23T12:05:36.906Z,25.63
2019-02-23T12:09:02.814Z,24.42
2019-02-23T12:12:28.383Z,25.73
2019-02-23T12:15:54.046Z,26.53
2019-02-23T12:19:19.709Z,26.72
2019-02-23T12:22:45.386Z,25.69
2019-02-23T12:26:11.094Z,26.28
2019-02-23T12:29:36.735Z,25.13
2019-02-23T12:33:02.537Z,26.04
2019-02-23T12:36:28.446Z,24.45
2019-02-23T12:39:54.103Z,24.01
2019-02-23T12:43:19.755Z,23.08
2019-02-23T12:46:45.692Z,24.69
2019-02-23T12:50:11.450Z,23.70
2019-02-23T12:53:37.143Z,24.74
2019-02-23T12:57:02.749Z,24.50
2019-02-23T13:00:28.783Z,22.40
2019-02-23T13:03:54.448Z,21.91
2019-02-23T13:07:20.089Z,20.58
2019-02-23T13:10:46.274Z,20.22
2019-02-23T13:15:02.803Z,19.62
2019-02-23T13:19:30.789Z,18.62
2019-02-23T13:23:47.667Z,17.73
2019-02-23T13:28:02.523Z,17.20
2019-02-23T13:32:43.776Z,18.29
2019-02-23T13:37:45.827Z,18.30
2019-02-23T13:42:01.014Z,18.11
2019-02-23T13:46:08.357Z,17.58
2019-02-23T13:50:43.254Z,19.26
2019-02-23T13:55:13.842Z,18.95
2019-02-23T13:59:18.809Z,18.51
2019-02-23T14:03:27.531Z,18.65
2019-02-23T14:07:33.710Z,18.18
2019-02-23T14:12:11.974Z,19.51
2019-02-23T14:16:29.672Z,16.89
2019-02-23T14:20:26.553Z,16.87
2019-02-23T14:24:52.592Z,17.03
2019-02-23T14:29:34.573Z,16.30
2019-02-23T14:33:57.581Z,15.46
2019-02-23T14:38:20.123Z,14.86
2019-02-23T14:42:18.919Z,14.02
2019-02-23T14:46:54.554Z,14.32
2019-02-23T14:50:59.451Z,13.59
2019-02-23T14:55:04.347Z,13.59
2019-02-23T14:59:24.472Z,14.28
2019-02-23T15:04:00.466Z,14.56
2019-02-23T15:08:14.498Z,15.84
2019-02-23T15:16:17.496Z,14.68
2019-02-23T15:20:16.630Z,15.77
2019-02-23T15:24:36.239Z,16.05
2019-02-23T15:28:47.911Z,16.27
2019-02-23T15:33:14.957Z,16.07
2019-02-23T15:37:57.506Z,16.71
2019-02-23T15:42:18.916Z,17.26
2019-02-23T15:46:15.126Z,17.67
2019-02-23T15:49:40.793Z,16.98
2019-02-23T15:53:06.689Z,17.19
2019-02-23T15:56:32.458Z,17.19
2019-02-23T15:59:58.254Z,17.90
2019-02-23T16:03:23.855Z,18.21
2019-02-23T16:06:49.565Z,19.56
2019-02-23T16:10:17.769Z,18.38
2019-02-23T16:13:42.906Z,18.10
2019-02-23T16:17:08.556Z,18.73
2019-02-23T16:20:34.187Z,18.58
2019-02-23T16:24:01.822Z,19.47
2019-02-23T16:27:27.747Z,21.43
2019-02-23T16:30:53.437Z,22.26
2019-02-23T16:34:19.058Z,22.99
2019-02-23T16:37:44.757Z,23.20
2019-02-23T16:41:10.382Z,23.74
2019-02-23T16:44:36.038Z,24.16
2019-02-23T16:48:01.787Z,23.85
2019-02-23T16:51:27.432Z,25.18
2019-02-23T16:54:53.010Z,25.15
2019-02-23T16:58:18.737Z,25.44
2019-02-23T17:01:44.368Z,25.52
2019-02-23T17:05:10.412Z,26.16
2019-02-23T17:08:36.073Z,27.02
2019-02-23T17:12:02.013Z,27.05
2019-02-23T17:15:27.650Z,26.53
2019-02-23T17:18:53.339Z,27.19
2019-02-23T17:22:19.011Z,26.60
2019-02-23T17:25:44.627Z,26.58
2019-02-23T17:29:10.422Z,26.54
2019-02-23T17:32:36.108Z,26.68
2019-02-23T17:36:01.729Z,26.92
2019-02-23T17:39:27.426Z,26.92
2019-02-23T17:42:53.103Z,26.08
2019-02-23T17:46:19.110Z,26.67
2019-02-23T17:49:45.695Z,26.35
2019-02-23T17:53:11.492Z,26.56
2019-02-23T17:56:37.110Z,26.47
2019-02-23T18:00:02.817Z,28.00
2019-02-23T18:03:28.466Z,28.25
2019-02-23T18:06:54.055Z,26.52
2019-02-23T18:10:20.053Z,27.42
2019-02-23T18:13:45.682Z,28.02
2019-02-23T18:17:11.753Z,28.41
2019-02-23T18:20:37.417Z,27.85
2019-02-23T18:24:03.438Z,28.13
2019-02-23T18:27:29.115Z,28.63
2019-02-23T18:30:55.399Z,28.78
2019-02-23T18:34:21.405Z,28.68
2019-02-23T18:37:47.303Z,29.22
2019-02-23T18:41:12.983Z,29.36
2019-02-23T18:44:38.630Z,29.33
2019-02-23T18:48:04.238Z,29.41
2019-02-23T18:51:29.851Z,29.84
2019-02-23T18:54:55.725Z,30.11
2019-02-23T18:58:21.408Z,30.81
2019-02-23T19:01:47.047Z,29.34
2019-02-23T19:05:13.621Z,29.83
2019-02-23T19:08:39.261Z,31.00
2019-02-23T19:12:05.113Z,30.52
2019-02-23T19:15:30.831Z,30.78
2019-02-23T19:18:56.472Z,30.19
2019-02-23T19:22:22.101Z,30.93
2019-02-23T19:25:47.650Z,31.74
2019-02-23T19:29:16.420Z,31.79
2019-02-23T19:32:42.072Z,31.37
2019-02-23T19:36:07.756Z,31.85
2019-02-23T19:39:33.423Z,31.28
2019-02-23T19:42:59.015Z,31.55
2019-02-23T19:46:25.162Z,31.65
2019-02-23T19:49:53.814Z,31.84
2019-02-23T19:53:19.686Z,32.25
2019-02-23T19:56:47.046Z,32.84
2019-02-23T20:00:12.923Z,33.34
2019-02-23T20:03:38.542Z,33.49
2019-02-23T20:07:04.217Z,33.86
2019-02-23T20:10:29.837Z,32.96
2019-02-23T20:13:55.421Z,32.77
2019-02-23T20:17:21.028Z,32.87
2019-02-23T20:20:46.683Z,32.79
2019-02-23T20:24:12.360Z,32.96
2019-02-23T20:27:38.076Z,32.07
2019-02-23T20:31:03.678Z,31.97
2019-02-23T20:34:29.282Z,32.80
2019-02-23T20:37:55.234Z,33.01
2019-02-23T20:41:21.529Z,33.13
2019-02-23T20:44:47.191Z,32.77
2019-02-23T20:48:12.846Z,32.62
2019-02-23T20:51:38.563Z,33.14
2019-02-23T20:55:04.795Z,32.21
2019-02-23T20:58:30.489Z,33.03
2019-02-23T21:02:00.090Z,32.67
2019-02-23T21:05:26.078Z,32.28
2019-02-23T21:08:51.891Z,33.09
2019-02-23T21:12:17.692Z,32.95
2019-02-23T21:15:43.546Z,32.95
2019-02-23T21:19:09.458Z,33.43
2019-02-23T21:22:35.375Z,33.61
2019-02-23T21:26:01.384Z,33.35
2019-02-23T21:29:27.352Z,33.05
2019-02-23T21:32:52.974Z,33.62
2019-02-23T21:36:20.416Z,33.80
2019-02-23T21:39:46.163Z,34.14
2019-02-23T21:43:13.519Z,34.33
2019-02-23T21:46:39.775Z,34.67
2019-02-23T21:50:05.638Z,34.32
2019-02-23T21:53:32.193Z,34.34
2019-02-23T21:56:59.607Z,35.01
2019-02-23T22:00:25.270Z,35.28
2019-02-23T22:03:51.231Z,34.66
2019-02-23T22:07:16.919Z,34.80
2019-02-23T22:10:45.615Z,35.21
2019-02-23T22:14:11.832Z,34.96
2019-02-23T22:17:37.681Z,35.42
2019-02-23T22:21:03.814Z,35.03
2019-02-23T22:24:29.935Z,35.03
2019-02-23T22:27:57.125Z,35.37
2019-02-23T22:31:22.969Z,35.74
2019-02-23T22:34:48.679Z,35.71
2019-02-23T22:38:14.258Z,36.15
2019-02-23T22:41:39.978Z,36.04
2019-02-23T22:45:08.145Z,36.11
2019-02-23T22:48:33.957Z,36.14
2019-02-23T22:51:59.540Z,35.98
2019-02-23T22:55:25.352Z,36.58
2019-02-23T22:58:51.177Z,36.25
2019-02-23T23:02:17.192Z,36.29
2019-02-23T23:05:43.125Z,36.46
2019-02-23T23:09:14.963Z,36.62
2019-02-23T23:12:42.506Z,36.22
2019-02-23T23:16:08.398Z,36.54
2019-02-23T23:19:34.264Z,36.70
2019-02-23T23:23:00.073Z,36.70
2019-02-23T23:26:25.725Z,36.38
2019-02-23T23:29:51.628Z,36.66
2019-02-23T23:33:18.132Z,36.28
2019-02-23T23:36:44.096Z,36.44
2019-02-23T23:40:09.854Z,36.52
2019-02-23T23:43:35.776Z,37.17
2019-02-23T23:47:01.485Z,37.88
2019-02-23T23:50:27.490Z,37.62
2019-02-23T23:53:53.141Z,37.74
2019-02-23T23:57:18.754Z,37.73
